Terminal Aerodrome Forecast
Issued by NWS Sioux Falls, SD

Home | Current Version | Previous Version | Graphics & Text | Print | Product List | Glossary On
Versions: 1 2 3 4 5 6 7 8 9 10 11 12 13 14 15
000
FTUS43 KFSD 181739
TAFFSD
TAF
KFSD 181739Z 1818/1918 21015G25KT P6SM BKN200
     FM182100 26011KT P6SM BKN150
     FM190100 36018G28KT P6SM SCT025 BKN035
     FM190700 36017G27KT 5SM BR VCSH OVC025
     FM191700 02015G25KT 3SM -SN SCT010 OVC020=

USA.gov is the U.S. government's official web portal to all federal, state and local government web resources and services.